sensor_id;sensor_type;location;lat;lon;timestamp;temperature;humidity
2459;DHT22;1241;50.920;6.936;2022-07-29T00:00:41;20.80;99.90
2459;DHT22;1241;50.920;6.936;2022-07-29T00:03:10;20.80;99.90
2459;DHT22;1241;50.920;6.936;2022-07-29T00:05:38;20.90;99.90
2459;DHT22;1241;50.920;6.936;2022-07-29T00:08:05;20.80;99.90
2459;DHT22;1241;50.920;6.936;2022-07-29T00:10:30;20.90;99.90
2459;DHT22;1241;50.920;6.936;2022-07-29T00:12:56;20.90;99.90
2459;DHT22;1241;50.920;6.936;2022-07-29T00:15:22;20.90;99.90
2459;DHT22;1241;50.920;6.936;2022-07-29T00:17:48;20.90;99.90
2459;DHT22;1241;50.920;6.936;2022-07-29T00:20:13;20.90;99.90
2459;DHT22;1241;50.920;6.936;2022-07-29T00:22:39;20.90;99.90
2459;DHT22;1241;50.920;6.936;2022-07-29T00:25:06;20.90;99.90
2459;DHT22;1241;50.920;6.936;2022-07-29T00:27:32;20.90;99.90
2459;DHT22;1241;50.920;6.936;2022-07-29T00:29:57;20.90;99.90
2459;DHT22;1241;50.920;6.936;2022-07-29T00:32:23;20.80;99.90
2459;DHT22;1241;50.920;6.936;2022-07-29T00:34:49;20.80;99.90
2459;DHT22;1241;50.920;6.936;2022-07-29T00:37:33;20.80;99.90
2459;DHT22;1241;50.920;6.936;2022-07-29T00:39:59;20.80;99.90
2459;DHT22;1241;50.920;6.936;2022-07-29T00:42:25;20.80;99.90
2459;DHT22;1241;50.920;6.936;2022-07-29T00:44:50;20.80;99.90
2459;DHT22;1241;50.920;6.936;2022-07-29T00:47:16;20.80;99.90
2459;DHT22;1241;50.920;6.936;2022-07-29T00:49:42;20.90;99.90
2459;DHT22;1241;50.920;6.936;2022-07-29T00:52:09;20.90;99.90
2459;DHT22;1241;50.920;6.936;2022-07-29T00:54:36;20.90;99.90
2459;DHT22;1241;50.920;6.936;2022-07-29T00:57:03;20.90;99.90
2459;DHT22;1241;50.920;6.936;2022-07-29T00:59:29;20.90;99.90
2459;DHT22;1241;50.920;6.936;2022-07-29T01:01:55;20.80;99.90
2459;DHT22;1241;50.920;6.936;2022-07-29T01:04:21;20.80;99.90
2459;DHT22;1241;50.920;6.936;2022-07-29T01:06:50;20.80;99.90
2459;DHT22;1241;50.920;6.936;2022-07-29T01:09:17;20.80;99.90
2459;DHT22;1241;50.920;6.936;2022-07-29T01:11:45;20.80;99.90
2459;DHT22;1241;50.920;6.936;2022-07-29T01:14:11;20.80;99.90
2459;DHT22;1241;50.920;6.936;2022-07-29T01:17:32;20.80;99.90
2459;DHT22;1241;50.920;6.936;2022-07-29T01:19:48;20.70;99.90
2459;DHT22;1241;50.920;6.936;2022-07-29T01:23:01;20.70;99.90
2459;DHT22;1241;50.920;6.936;2022-07-29T01:28:08;20.70;99.90
2459;DHT22;1241;50.920;6.936;2022-07-29T01:30:41;20.70;99.90
2459;DHT22;1241;50.920;6.936;2022-07-29T01:33:13;20.70;99.90
2459;DHT22;1241;50.920;6.936;2022-07-29T01:36:07;20.70;99.90
2459;DHT22;1241;50.920;6.936;2022-07-29T01:38:36;20.60;99.90
2459;DHT22;1241;50.920;6.936;2022-07-29T01:41:07;20.70;99.90
2459;DHT22;1241;50.920;6.936;2022-07-29T01:43:54;20.70;99.90
2459;DHT22;1241;50.920;6.936;2022-07-29T01:46:27;20.70;99.90
2459;DHT22;1241;50.920;6.936;2022-07-29T01:49:08;20.70;99.90
2459;DHT22;1241;50.920;6.936;2022-07-29T01:51:45;20.60;99.90
2459;DHT22;1241;50.920;6.936;2022-07-29T01:54:24;20.60;99.90
2459;DHT22;1241;50.920;6.936;2022-07-29T01:56:54;20.60;99.90
2459;DHT22;1241;50.920;6.936;2022-07-29T01:59:23;20.50;99.90
2459;DHT22;1241;50.920;6.936;2022-07-29T02:01:49;20.50;99.90
2459;DHT22;1241;50.920;6.936;2022-07-29T02:04:18;20.50;99.90
2459;DHT22;1241;50.920;6.936;2022-07-29T02:06:44;20.50;99.90
2459;DHT22;1241;50.920;6.936;2022-07-29T02:09:14;20.60;99.90
2459;DHT22;1241;50.920;6.936;2022-07-29T02:11:44;20.60;99.90
2459;DHT22;1241;50.920;6.936;2022-07-29T02:14:14;20.50;99.90
2459;DHT22;1241;50.920;6.936;2022-07-29T02:16:42;20.40;99.90
2459;DHT22;1241;50.920;6.936;2022-07-29T02:19:09;20.40;99.90
2459;DHT22;1241;50.920;6.936;2022-07-29T02:21:37;20.30;99.90
2459;DHT22;1241;50.920;6.936;2022-07-29T02:24:04;20.30;99.90
2459;DHT22;1241;50.920;6.936;2022-07-29T02:26:32;20.30;99.90
2459;DHT22;1241;50.920;6.936;2022-07-29T02:28:59;20.20;99.90
2459;DHT22;1241;50.920;6.936;2022-07-29T02:31:34;20.10;99.90
2459;DHT22;1241;50.920;6.936;2022-07-29T02:34:07;20.00;99.90
2459;DHT22;1241;50.920;6.936;2022-07-29T02:36:34;20.00;99.90
2459;DHT22;1241;50.920;6.936;2022-07-29T02:39:01;20.00;99.90
2459;DHT22;1241;50.920;6.936;2022-07-29T02:41:30;20.00;99.90
2459;DHT22;1241;50.920;6.936;2022-07-29T02:44:09;20.00;99.90
2459;DHT22;1241;50.920;6.936;2022-07-29T02:46:37;19.90;99.90
2459;DHT22;1241;50.920;6.936;2022-07-29T02:49:18;19.90;99.90
2459;DHT22;1241;50.920;6.936;2022-07-29T02:51:55;19.90;99.90
2459;DHT22;1241;50.920;6.936;2022-07-29T02:54:44;19.90;99.90
2459;DHT22;1241;50.920;6.936;2022-07-29T02:57:20;19.90;99.90
2459;DHT22;1241;50.920;6.936;2022-07-29T02:59:49;19.90;99.90
2459;DHT22;1241;50.920;6.936;2022-07-29T03:02:17;19.80;99.90
2459;DHT22;1241;50.920;6.936;2022-07-29T03:04:43;19.80;99.90
2459;DHT22;1241;50.920;6.936;2022-07-29T03:07:13;19.80;99.90
2459;DHT22;1241;50.920;6.936;2022-07-29T03:09:41;19.70;99.90
2459;DHT22;1241;50.920;6.936;2022-07-29T03:12:08;19.70;99.90
2459;DHT22;1241;50.920;6.936;2022-07-29T03:14:33;19.60;99.90
2459;DHT22;1241;50.920;6.936;2022-07-29T03:17:00;19.50;99.90
2459;DHT22;1241;50.920;6.936;2022-07-29T03:19:27;19.30;99.90
2459;DHT22;1241;50.920;6.936;2022-07-29T03:21:56;19.10;99.90
2459;DHT22;1241;50.920;6.936;2022-07-29T03:24:32;19.10;99.90
2459;DHT22;1241;50.920;6.936;2022-07-29T03:26:59;19.00;99.90
2459;DHT22;1241;50.920;6.936;2022-07-29T03:29:25;19.00;99.90
2459;DHT22;1241;50.920;6.936;2022-07-29T03:31:51;19.00;99.90
2459;DHT22;1241;50.920;6.936;2022-07-29T03:34:17;18.90;99.90
2459;DHT22;1241;50.920;6.936;2022-07-29T03:36:43;18.90;99.90
2459;DHT22;1241;50.920;6.936;2022-07-29T03:39:10;19.00;99.90
2459;DHT22;1241;50.920;6.936;2022-07-29T03:41:38;19.00;99.90
2459;DHT22;1241;50.920;6.936;2022-07-29T03:44:06;19.00;99.90
2459;DHT22;1241;50.920;6.936;2022-07-29T03:46:34;19.00;99.90
2459;DHT22;1241;50.920;6.936;2022-07-29T03:49:03;19.00;99.90
2459;DHT22;1241;50.920;6.936;2022-07-29T03:51:29;18.90;99.90
2459;DHT22;1241;50.920;6.936;2022-07-29T03:53:55;18.80;99.90
2459;DHT22;1241;50.920;6.936;2022-07-29T03:56:22;18.80;99.90
2459;DHT22;1241;50.920;6.936;2022-07-29T03:58:50;18.70;99.90
2459;DHT22;1241;50.920;6.936;2022-07-29T04:01:17;18.70;99.90
2459;DHT22;1241;50.920;6.936;2022-07-29T04:03:44;18.80;99.90
2459;DHT22;1241;50.920;6.936;2022-07-29T04:06:13;18.80;99.90
2459;DHT22;1241;50.920;6.936;2022-07-29T04:08:38;18.80;99.90
2459;DHT22;1241;50.920;6.936;2022-07-29T04:11:05;18.80;99.90
2459;DHT22;1241;50.920;6.936;2022-07-29T04:13:31;18.70;99.90
2459;DHT22;1241;50.920;6.936;2022-07-29T04:15:57;18.70;99.90
2459;DHT22;1241;50.920;6.936;2022-07-29T04:18:23;18.70;99.90
2459;DHT22;1241;50.920;6.936;2022-07-29T04:20:49;18.70;99.90
2459;DHT22;1241;50.920;6.936;2022-07-29T04:23:15;18.60;99.90
2459;DHT22;1241;50.920;6.936;2022-07-29T04:25:41;18.70;99.90
2459;DHT22;1241;50.920;6.936;2022-07-29T04:28:07;18.70;99.90
2459;DHT22;1241;50.920;6.936;2022-07-29T04:30:34;18.70;99.90
2459;DHT22;1241;50.920;6.936;2022-07-29T04:33:01;18.70;99.90
2459;DHT22;1241;50.920;6.936;2022-07-29T04:35:28;18.60;99.90
2459;DHT22;1241;50.920;6.936;2022-07-29T04:37:54;18.60;99.90
2459;DHT22;1241;50.920;6.936;2022-07-29T04:40:20;18.60;99.90
2459;DHT22;1241;50.920;6.936;2022-07-29T04:42:46;18.60;99.90
2459;DHT22;1241;50.920;6.936;2022-07-29T04:45:12;18.70;99.90
2459;DHT22;1241;50.920;6.936;2022-07-29T04:47:38;18.60;99.90
2459;DHT22;1241;50.920;6.936;2022-07-29T04:50:04;18.60;99.90
2459;DHT22;1241;50.920;6.936;2022-07-29T04:52:31;18.60;99.90
2459;DHT22;1241;50.920;6.936;2022-07-29T04:54:57;18.70;99.90
2459;DHT22;1241;50.920;6.936;2022-07-29T04:57:22;18.80;99.90
2459;DHT22;1241;50.920;6.936;2022-07-29T04:59:48;18.80;99.90
2459;DHT22;1241;50.920;6.936;2022-07-29T05:02:14;18.90;99.90
2459;DHT22;1241;50.920;6.936;2022-07-29T05:04:40;18.90;99.90
2459;DHT22;1241;50.920;6.936;2022-07-29T05:07:05;19.00;99.90
2459;DHT22;1241;50.920;6.936;2022-07-29T05:09:31;19.20;99.90
2459;DHT22;1241;50.920;6.936;2022-07-29T05:11:58;19.20;99.90
2459;DHT22;1241;50.920;6.936;2022-07-29T05:14:23;19.10;99.90
2459;DHT22;1241;50.920;6.936;2022-07-29T05:16:49;19.20;99.90
2459;DHT22;1241;50.920;6.936;2022-07-29T05:19:17;19.20;99.90
2459;DHT22;1241;50.920;6.936;2022-07-29T05:21:44;19.30;99.90
2459;DHT22;1241;50.920;6.936;2022-07-29T05:24:10;19.30;99.90
2459;DHT22;1241;50.920;6.936;2022-07-29T05:26:36;19.40;99.90
2459;DHT22;1241;50.920;6.936;2022-07-29T05:29:01;19.50;99.90
2459;DHT22;1241;50.920;6.936;2022-07-29T05:31:27;19.50;99.90
2459;DHT22;1241;50.920;6.936;2022-07-29T05:33:53;19.50;99.90
2459;DHT22;1241;50.920;6.936;2022-07-29T05:36:19;19.50;99.90
2459;DHT22;1241;50.920;6.936;2022-07-29T05:38:44;19.50;99.90
2459;DHT22;1241;50.920;6.936;2022-07-29T05:41:10;19.60;99.90
2459;DHT22;1241;50.920;6.936;2022-07-29T05:43:36;19.60;99.90
2459;DHT22;1241;50.920;6.936;2022-07-29T05:46:01;19.70;99.90
2459;DHT22;1241;50.920;6.936;2022-07-29T05:48:27;19.90;99.90
2459;DHT22;1241;50.920;6.936;2022-07-29T05:50:53;20.00;99.90
2459;DHT22;1241;50.920;6.936;2022-07-29T05:53:20;20.00;99.90
2459;DHT22;1241;50.920;6.936;2022-07-29T05:55:46;20.00;99.90
2459;DHT22;1241;50.920;6.936;2022-07-29T05:58:12;20.00;99.90
2459;DHT22;1241;50.920;6.936;2022-07-29T06:00:38;20.10;99.90
2459;DHT22;1241;50.920;6.936;2022-07-29T06:03:03;20.20;99.90
2459;DHT22;1241;50.920;6.936;2022-07-29T06:05:29;20.30;99.90
2459;DHT22;1241;50.920;6.936;2022-07-29T06:07:55;20.40;99.90
2459;DHT22;1241;50.920;6.936;2022-07-29T06:10:20;20.50;99.90
2459;DHT22;1241;50.920;6.936;2022-07-29T06:12:46;20.50;99.90
2459;DHT22;1241;50.920;6.936;2022-07-29T06:15:12;20.70;99.90
2459;DHT22;1241;50.920;6.936;2022-07-29T06:17:37;20.80;99.90
2459;DHT22;1241;50.920;6.936;2022-07-29T06:20:04;21.00;99.90
2459;DHT22;1241;50.920;6.936;2022-07-29T06:22:30;21.10;99.90
2459;DHT22;1241;50.920;6.936;2022-07-29T06:24:55;21.20;99.90
2459;DHT22;1241;50.920;6.936;2022-07-29T06:27:21;21.20;99.90
2459;DHT22;1241;50.920;6.936;2022-07-29T06:29:47;21.30;99.90
2459;DHT22;1241;50.920;6.936;2022-07-29T06:32:13;21.20;99.90
2459;DHT22;1241;50.920;6.936;2022-07-29T06:34:38;21.20;99.90
2459;DHT22;1241;50.920;6.936;2022-07-29T06:37:08;21.20;99.90
2459;DHT22;1241;50.920;6.936;2022-07-29T06:39:35;21.20;99.90
2459;DHT22;1241;50.920;6.936;2022-07-29T06:42:03;21.10;99.90
2459;DHT22;1241;50.920;6.936;2022-07-29T06:44:31;21.00;99.90
2459;DHT22;1241;50.920;6.936;2022-07-29T06:46:59;20.90;99.90
2459;DHT22;1241;50.920;6.936;2022-07-29T06:49:25;20.70;99.90
2459;DHT22;1241;50.920;6.936;2022-07-29T06:51:53;20.60;99.90
2459;DHT22;1241;50.920;6.936;2022-07-29T06:54:19;20.60;99.90
2459;DHT22;1241;50.920;6.936;2022-07-29T06:56:45;20.60;99.90
2459;DHT22;1241;50.920;6.936;2022-07-29T06:59:12;20.70;99.90
2459;DHT22;1241;50.920;6.936;2022-07-29T07:01:42;20.60;99.90
2459;DHT22;1241;50.920;6.936;2022-07-29T07:04:09;20.70;99.90
2459;DHT22;1241;50.920;6.936;2022-07-29T07:06:35;20.80;99.90
2459;DHT22;1241;50.920;6.936;2022-07-29T07:09:01;20.80;99.90
2459;DHT22;1241;50.920;6.936;2022-07-29T07:11:27;20.80;99.90
2459;DHT22;1241;50.920;6.936;2022-07-29T07:13:53;20.80;99.90
2459;DHT22;1241;50.920;6.936;2022-07-29T07:16:19;20.70;99.90
2459;DHT22;1241;50.920;6.936;2022-07-29T07:18:44;20.60;99.90
2459;DHT22;1241;50.920;6.936;2022-07-29T07:21:11;20.40;99.90
2459;DHT22;1241;50.920;6.936;2022-07-29T07:23:36;20.40;99.90
2459;DHT22;1241;50.920;6.936;2022-07-29T07:26:02;20.60;99.90
2459;DHT22;1241;50.920;6.936;2022-07-29T07:28:28;20.80;99.90
2459;DHT22;1241;50.920;6.936;2022-07-29T07:30:54;21.20;99.90
2459;DHT22;1241;50.920;6.936;2022-07-29T07:33:20;21.50;99.90
2459;DHT22;1241;50.920;6.936;2022-07-29T07:35:46;21.70;99.90
2459;DHT22;1241;50.920;6.936;2022-07-29T07:38:12;21.50;99.90
2459;DHT22;1241;50.920;6.936;2022-07-29T07:40:38;21.30;99.90
2459;DHT22;1241;50.920;6.936;2022-07-29T07:43:03;21.10;99.90
2459;DHT22;1241;50.920;6.936;2022-07-29T07:45:29;21.10;99.90
2459;DHT22;1241;50.920;6.936;2022-07-29T07:47:58;21.10;99.90
2459;DHT22;1241;50.920;6.936;2022-07-29T07:50:23;21.10;99.90
2459;DHT22;1241;50.920;6.936;2022-07-29T07:52:54;21.10;99.90
2459;DHT22;1241;50.920;6.936;2022-07-29T07:55:23;21.00;99.90
2459;DHT22;1241;50.920;6.936;2022-07-29T07:57:49;20.90;99.90
2459;DHT22;1241;50.920;6.936;2022-07-29T08:00:15;20.80;99.90
2459;DHT22;1241;50.920;6.936;2022-07-29T08:02:42;20.70;99.90
2459;DHT22;1241;50.920;6.936;2022-07-29T08:05:08;20.60;99.90
2459;DHT22;1241;50.920;6.936;2022-07-29T08:07:34;20.60;99.90
2459;DHT22;1241;50.920;6.936;2022-07-29T08:10:01;20.60;99.90
2459;DHT22;1241;50.920;6.936;2022-07-29T08:12:26;20.60;99.90
2459;DHT22;1241;50.920;6.936;2022-07-29T08:14:52;20.40;99.90
2459;DHT22;1241;50.920;6.936;2022-07-29T08:17:18;20.40;99.90
2459;DHT22;1241;50.920;6.936;2022-07-29T08:19:44;20.30;99.90
2459;DHT22;1241;50.920;6.936;2022-07-29T08:22:09;20.30;99.90
2459;DHT22;1241;50.920;6.936;2022-07-29T08:24:35;20.40;99.90
2459;DHT22;1241;50.920;6.936;2022-07-29T08:27:18;20.50;99.90
2459;DHT22;1241;50.920;6.936;2022-07-29T08:29:43;20.60;99.90
2459;DHT22;1241;50.920;6.936;2022-07-29T08:32:09;20.80;99.90
2459;DHT22;1241;50.920;6.936;2022-07-29T08:34:35;20.90;99.90
2459;DHT22;1241;50.920;6.936;2022-07-29T08:37:00;20.90;99.90
2459;DHT22;1241;50.920;6.936;2022-07-29T08:39:26;20.80;99.90
2459;DHT22;1241;50.920;6.936;2022-07-29T08:41:52;20.60;99.90
2459;DHT22;1241;50.920;6.936;2022-07-29T08:44:18;20.70;99.90
2459;DHT22;1241;50.920;6.936;2022-07-29T08:46:45;20.80;99.90
2459;DHT22;1241;50.920;6.936;2022-07-29T08:49:11;21.00;99.90
2459;DHT22;1241;50.920;6.936;2022-07-29T08:51:39;21.20;99.90
2459;DHT22;1241;50.920;6.936;2022-07-29T08:54:05;21.50;99.90
2459;DHT22;1241;50.920;6.936;2022-07-29T08:56:32;21.80;99.90
2459;DHT22;1241;50.920;6.936;2022-07-29T08:58:58;22.00;99.90
2459;DHT22;1241;50.920;6.936;2022-07-29T09:01:26;22.20;99.90
2459;DHT22;1241;50.920;6.936;2022-07-29T09:03:55;22.30;99.90
2459;DHT22;1241;50.920;6.936;2022-07-29T09:06:22;22.40;99.90
2459;DHT22;1241;50.920;6.936;2022-07-29T09:08:51;22.40;99.90
2459;DHT22;1241;50.920;6.936;2022-07-29T09:11:17;22.50;99.90
2459;DHT22;1241;50.920;6.936;2022-07-29T09:13:43;22.40;99.90
2459;DHT22;1241;50.920;6.936;2022-07-29T09:16:08;22.40;99.90
2459;DHT22;1241;50.920;6.936;2022-07-29T09:18:40;22.20;99.90
2459;DHT22;1241;50.920;6.936;2022-07-29T09:21:12;22.10;99.90
2459;DHT22;1241;50.920;6.936;2022-07-29T09:24:08;22.10;99.90
2459;DHT22;1241;50.920;6.936;2022-07-29T09:26:37;22.20;99.90
2459;DHT22;1241;50.920;6.936;2022-07-29T09:29:23;22.30;99.90
2459;DHT22;1241;50.920;6.936;2022-07-29T09:31:52;22.40;99.90
2459;DHT22;1241;50.920;6.936;2022-07-29T09:34:23;22.50;99.90
2459;DHT22;1241;50.920;6.936;2022-07-29T09:36:51;22.70;99.90
2459;DHT22;1241;50.920;6.936;2022-07-29T09:39:28;22.90;99.90
2459;DHT22;1241;50.920;6.936;2022-07-29T09:41:56;23.20;99.90
2459;DHT22;1241;50.920;6.936;2022-07-29T09:44:23;23.50;99.90
2459;DHT22;1241;50.920;6.936;2022-07-29T09:47:00;23.90;99.90
2459;DHT22;1241;50.920;6.936;2022-07-29T09:49:49;24.00;99.90
2459;DHT22;1241;50.920;6.936;2022-07-29T09:52:16;24.20;99.90
2459;DHT22;1241;50.920;6.936;2022-07-29T09:54:41;24.40;99.90
2459;DHT22;1241;50.920;6.936;2022-07-29T09:57:09;24.70;99.90
2459;DHT22;1241;50.920;6.936;2022-07-29T09:59:38;25.00;99.90
2459;DHT22;1241;50.920;6.936;2022-07-29T10:02:13;25.20;99.90
2459;DHT22;1241;50.920;6.936;2022-07-29T10:04:40;25.30;99.90
2459;DHT22;1241;50.920;6.936;2022-07-29T10:07:06;25.30;99.90
2459;DHT22;1241;50.920;6.936;2022-07-29T10:09:34;25.20;99.90
2459;DHT22;1241;50.920;6.936;2022-07-29T10:12:11;25.10;99.90
2459;DHT22;1241;50.920;6.936;2022-07-29T10:14:40;25.00;99.90
2459;DHT22;1241;50.920;6.936;2022-07-29T10:17:07;25.00;99.90
2459;DHT22;1241;50.920;6.936;2022-07-29T10:19:34;25.00;99.90
2459;DHT22;1241;50.920;6.936;2022-07-29T10:22:02;25.00;99.90
2459;DHT22;1241;50.920;6.936;2022-07-29T10:24:29;25.20;99.90
2459;DHT22;1241;50.920;6.936;2022-07-29T10:26:57;25.50;99.90
2459;DHT22;1241;50.920;6.936;2022-07-29T10:29:24;25.40;99.90
2459;DHT22;1241;50.920;6.936;2022-07-29T10:35:19;25.30;99.90
2459;DHT22;1241;50.920;6.936;2022-07-29T10:37:27;25.30;99.90
2459;DHT22;1241;50.920;6.936;2022-07-29T10:42:27;25.20;99.90
2459;DHT22;1241;50.920;6.936;2022-07-29T10:44:55;25.50;99.90
2459;DHT22;1241;50.920;6.936;2022-07-29T10:47:25;25.70;99.90
2459;DHT22;1241;50.920;6.936;2022-07-29T10:50:09;25.80;99.90
2459;DHT22;1241;50.920;6.936;2022-07-29T10:55:34;25.20;99.90
2459;DHT22;1241;50.920;6.936;2022-07-29T11:00:38;25.40;99.90
2459;DHT22;1241;50.920;6.936;2022-07-29T11:03:03;25.70;99.90
2459;DHT22;1241;50.920;6.936;2022-07-29T11:05:29;25.80;99.90
2459;DHT22;1241;50.920;6.936;2022-07-29T11:10:45;25.50;99.90
2459;DHT22;1241;50.920;6.936;2022-07-29T11:13:11;25.40;99.90
2459;DHT22;1241;50.920;6.936;2022-07-29T11:15:54;25.10;99.90
2459;DHT22;1241;50.920;6.936;2022-07-29T11:18:20;25.00;99.90
2459;DHT22;1241;50.920;6.936;2022-07-29T11:20:51;25.10;99.90
2459;DHT22;1241;50.920;6.936;2022-07-29T11:23:33;25.30;99.90
2459;DHT22;1241;50.920;6.936;2022-07-29T11:26:20;25.40;99.90
2459;DHT22;1241;50.920;6.936;2022-07-29T11:29:01;25.60;99.90
2459;DHT22;1241;50.920;6.936;2022-07-29T11:31:41;25.70;99.90
2459;DHT22;1241;50.920;6.936;2022-07-29T11:47:27;25.90;99.90
2459;DHT22;1241;50.920;6.936;2022-07-29T11:49:57;26.00;99.90
2459;DHT22;1241;50.920;6.936;2022-07-29T11:52:24;26.10;99.90
2459;DHT22;1241;50.920;6.936;2022-07-29T11:54:58;26.20;99.90
2459;DHT22;1241;50.920;6.936;2022-07-29T11:57:25;26.40;99.90
2459;DHT22;1241;50.920;6.936;2022-07-29T11:59:51;26.30;99.90
2459;DHT22;1241;50.920;6.936;2022-07-29T12:02:18;26.30;99.90
2459;DHT22;1241;50.920;6.936;2022-07-29T12:04:55;26.10;99.90
2459;DHT22;1241;50.920;6.936;2022-07-29T12:07:32;26.20;99.90
2459;DHT22;1241;50.920;6.936;2022-07-29T12:09:59;26.30;99.90
2459;DHT22;1241;50.920;6.936;2022-07-29T12:12:25;26.30;99.90
2459;DHT22;1241;50.920;6.936;2022-07-29T12:14:51;26.40;99.90
2459;DHT22;1241;50.920;6.936;2022-07-29T12:17:28;26.30;99.90
2459;DHT22;1241;50.920;6.936;2022-07-29T12:19:55;26.30;99.90
2459;DHT22;1241;50.920;6.936;2022-07-29T12:22:47;26.00;99.90
2459;DHT22;1241;50.920;6.936;2022-07-29T12:25:14;25.90;99.90
2459;DHT22;1241;50.920;6.936;2022-07-29T12:27:42;26.20;99.90
2459;DHT22;1241;50.920;6.936;2022-07-29T12:30:16;26.30;99.90
2459;DHT22;1241;50.920;6.936;2022-07-29T12:32:47;26.50;99.90
2459;DHT22;1241;50.920;6.936;2022-07-29T12:35:16;26.40;99.90
2459;DHT22;1241;50.920;6.936;2022-07-29T12:37:45;26.40;99.90
2459;DHT22;1241;50.920;6.936;2022-07-29T12:40:15;26.30;99.90
2459;DHT22;1241;50.920;6.936;2022-07-29T12:43:10;26.30;99.90
2459;DHT22;1241;50.920;6.936;2022-07-29T12:45:38;26.50;99.90
2459;DHT22;1241;50.920;6.936;2022-07-29T12:48:05;26.70;99.90
2459;DHT22;1241;50.920;6.936;2022-07-29T12:50:32;26.80;99.90
2459;DHT22;1241;50.920;6.936;2022-07-29T12:53:11;26.90;99.90
2459;DHT22;1241;50.920;6.936;2022-07-29T12:55:41;26.90;99.80
2459;DHT22;1241;50.920;6.936;2022-07-29T12:58:07;27.00;99.20
2459;DHT22;1241;50.920;6.936;2022-07-29T13:00:33;27.10;98.40
2459;DHT22;1241;50.920;6.936;2022-07-29T13:02:59;27.00;97.30
2459;DHT22;1241;50.920;6.936;2022-07-29T13:05:40;26.90;97.40
2459;DHT22;1241;50.920;6.936;2022-07-29T13:08:15;26.80;97.80
2459;DHT22;1241;50.920;6.936;2022-07-29T13:10:41;26.80;98.40
2459;DHT22;1241;50.920;6.936;2022-07-29T13:13:12;27.00;98.10
2459;DHT22;1241;50.920;6.936;2022-07-29T13:15:41;27.00;97.20
2459;DHT22;1241;50.920;6.936;2022-07-29T13:18:30;26.90;97.80
2459;DHT22;1241;50.920;6.936;2022-07-29T13:20:56;27.00;97.40
2459;DHT22;1241;50.920;6.936;2022-07-29T13:23:22;27.10;96.70
2459;DHT22;1241;50.920;6.936;2022-07-29T13:25:48;26.90;96.50
2459;DHT22;1241;50.920;6.936;2022-07-29T13:28:14;26.80;96.50
2459;DHT22;1241;50.920;6.936;2022-07-29T13:30:40;26.80;96.70
2459;DHT22;1241;50.920;6.936;2022-07-29T13:33:06;27.00;96.60
2459;DHT22;1241;50.920;6.936;2022-07-29T13:35:32;27.10;97.60
2459;DHT22;1241;50.920;6.936;2022-07-29T13:37:58;27.10;98.60
2459;DHT22;1241;50.920;6.936;2022-07-29T13:40:24;27.10;99.50
2459;DHT22;1241;50.920;6.936;2022-07-29T13:42:49;26.90;99.90
2459;DHT22;1241;50.920;6.936;2022-07-29T13:45:15;26.70;99.90
2459;DHT22;1241;50.920;6.936;2022-07-29T13:47:41;26.60;99.90
2459;DHT22;1241;50.920;6.936;2022-07-29T13:50:08;26.50;99.90
2459;DHT22;1241;50.920;6.936;2022-07-29T13:52:35;26.50;99.90
2459;DHT22;1241;50.920;6.936;2022-07-29T13:55:02;26.70;99.90
2459;DHT22;1241;50.920;6.936;2022-07-29T13:57:29;26.70;99.90
2459;DHT22;1241;50.920;6.936;2022-07-29T14:00:02;26.80;99.90
2459;DHT22;1241;50.920;6.936;2022-07-29T14:02:33;26.80;99.90
2459;DHT22;1241;50.920;6.936;2022-07-29T14:04:59;26.70;99.90
2459;DHT22;1241;50.920;6.936;2022-07-29T14:07:25;26.70;99.90
2459;DHT22;1241;50.920;6.936;2022-07-29T14:09:51;26.60;99.90
2459;DHT22;1241;50.920;6.936;2022-07-29T14:12:16;26.60;99.90
2459;DHT22;1241;50.920;6.936;2022-07-29T14:14:42;26.60;99.90
2459;DHT22;1241;50.920;6.936;2022-07-29T14:17:08;26.60;99.90
2459;DHT22;1241;50.920;6.936;2022-07-29T14:19:34;26.40;99.90
2459;DHT22;1241;50.920;6.936;2022-07-29T14:22:05;26.30;99.90
2459;DHT22;1241;50.920;6.936;2022-07-29T14:24:31;26.40;99.90
2459;DHT22;1241;50.920;6.936;2022-07-29T14:26:57;26.40;99.90
2459;DHT22;1241;50.920;6.936;2022-07-29T14:29:23;26.40;99.90
2459;DHT22;1241;50.920;6.936;2022-07-29T14:31:48;26.40;99.90
2459;DHT22;1241;50.920;6.936;2022-07-29T14:34:14;26.30;99.90
2459;DHT22;1241;50.920;6.936;2022-07-29T14:36:41;26.10;99.90
2459;DHT22;1241;50.920;6.936;2022-07-29T14:39:07;25.90;99.90
2459;DHT22;1241;50.920;6.936;2022-07-29T14:41:32;25.70;99.90
2459;DHT22;1241;50.920;6.936;2022-07-29T14:43:58;25.70;99.90
2459;DHT22;1241;50.920;6.936;2022-07-29T14:46:27;25.90;99.90
2459;DHT22;1241;50.920;6.936;2022-07-29T14:48:53;26.10;99.90
2459;DHT22;1241;50.920;6.936;2022-07-29T14:51:18;26.20;99.90
2459;DHT22;1241;50.920;6.936;2022-07-29T14:53:44;26.20;99.90
2459;DHT22;1241;50.920;6.936;2022-07-29T14:56:10;26.30;99.90
2459;DHT22;1241;50.920;6.936;2022-07-29T14:58:35;26.20;99.90
2459;DHT22;1241;50.920;6.936;2022-07-29T15:01:01;26.30;99.90
2459;DHT22;1241;50.920;6.936;2022-07-29T15:03:27;26.40;99.90
2459;DHT22;1241;50.920;6.936;2022-07-29T15:05:53;26.50;99.90
2459;DHT22;1241;50.920;6.936;2022-07-29T15:08:19;26.40;99.90
2459;DHT22;1241;50.920;6.936;2022-07-29T15:10:45;26.40;99.90
2459;DHT22;1241;50.920;6.936;2022-07-29T15:13:11;26.30;99.90
2459;DHT22;1241;50.920;6.936;2022-07-29T15:15:37;26.20;99.90
2459;DHT22;1241;50.920;6.936;2022-07-29T15:18:02;26.10;99.90
2459;DHT22;1241;50.920;6.936;2022-07-29T15:20:28;26.20;99.90
2459;DHT22;1241;50.920;6.936;2022-07-29T15:22:54;26.20;99.90
2459;DHT22;1241;50.920;6.936;2022-07-29T15:25:24;26.10;99.90
2459;DHT22;1241;50.920;6.936;2022-07-29T15:27:51;26.10;99.90
2459;DHT22;1241;50.920;6.936;2022-07-29T15:30:16;26.10;99.90
2459;DHT22;1241;50.920;6.936;2022-07-29T15:32:43;26.10;99.50
2459;DHT22;1241;50.920;6.936;2022-07-29T15:35:09;26.00;99.00
2459;DHT22;1241;50.920;6.936;2022-07-29T15:37:38;26.10;99.10
2459;DHT22;1241;50.920;6.936;2022-07-29T15:40:07;26.10;99.90
2459;DHT22;1241;50.920;6.936;2022-07-29T15:42:35;26.20;99.90
2459;DHT22;1241;50.920;6.936;2022-07-29T15:45:03;26.20;99.90
2459;DHT22;1241;50.920;6.936;2022-07-29T15:47:29;26.20;99.90
2459;DHT22;1241;50.920;6.936;2022-07-29T15:49:54;26.20;99.90
2459;DHT22;1241;50.920;6.936;2022-07-29T15:52:21;26.30;99.90
2459;DHT22;1241;50.920;6.936;2022-07-29T15:54:46;26.30;99.90
2459;DHT22;1241;50.920;6.936;2022-07-29T15:57:12;26.20;99.90
2459;DHT22;1241;50.920;6.936;2022-07-29T15:59:38;26.10;99.90
2459;DHT22;1241;50.920;6.936;2022-07-29T16:02:04;25.90;99.70
2459;DHT22;1241;50.920;6.936;2022-07-29T16:04:30;25.90;99.40
2459;DHT22;1241;50.920;6.936;2022-07-29T16:06:56;25.80;99.20
2459;DHT22;1241;50.920;6.936;2022-07-29T16:09:22;25.70;99.20
2459;DHT22;1241;50.920;6.936;2022-07-29T16:11:49;25.70;97.60
2459;DHT22;1241;50.920;6.936;2022-07-29T16:14:19;25.60;97.70
2459;DHT22;1241;50.920;6.936;2022-07-29T16:16:45;25.50;98.20
2459;DHT22;1241;50.920;6.936;2022-07-29T16:19:11;25.50;98.40
2459;DHT22;1241;50.920;6.936;2022-07-29T16:21:37;25.40;99.30
2459;DHT22;1241;50.920;6.936;2022-07-29T16:24:04;25.40;99.20
2459;DHT22;1241;50.920;6.936;2022-07-29T16:26:30;25.30;98.50
2459;DHT22;1241;50.920;6.936;2022-07-29T16:28:56;25.30;98.40
2459;DHT22;1241;50.920;6.936;2022-07-29T16:31:22;25.40;97.60
2459;DHT22;1241;50.920;6.936;2022-07-29T16:33:48;25.40;96.50
2459;DHT22;1241;50.920;6.936;2022-07-29T16:36:15;25.40;96.40
2459;DHT22;1241;50.920;6.936;2022-07-29T16:38:41;25.30;95.90